sensor_id;sensor_type;location;lat;lon;timestamp;P1;durP1;ratioP1;P2;durP2;ratioP2
54247;SDS011;40161;39.768;2.722;2023-11-19T00:01:31;3.10;;;1.67;;
54247;SDS011;40161;39.768;2.722;2023-11-19T00:03:57;4.57;;;1.48;;
54247;SDS011;40161;39.768;2.722;2023-11-19T00:06:23;3.75;;;2.05;;
54247;SDS011;40161;39.768;2.722;2023-11-19T00:08:53;3.47;;;1.80;;
54247;SDS011;40161;39.768;2.722;2023-11-19T00:11:19;4.18;;;1.83;;
54247;SDS011;40161;39.768;2.722;2023-11-19T00:13:44;2.63;;;1.30;;
54247;SDS011;40161;39.768;2.722;2023-11-19T00:16:10;4.38;;;1.65;;
54247;SDS011;40161;39.768;2.722;2023-11-19T00:18:35;3.25;;;1.50;;
54247;SDS011;40161;39.768;2.722;2023-11-19T00:21:01;2.30;;;1.27;;
54247;SDS011;40161;39.768;2.722;2023-11-19T00:23:27;4.70;;;1.50;;
54247;SDS011;40161;39.768;2.722;2023-11-19T00:25:53;2.90;;;1.40;;
54247;SDS011;40161;39.768;2.722;2023-11-19T00:28:19;3.88;;;1.80;;
54247;SDS011;40161;39.768;2.722;2023-11-19T00:30:44;4.38;;;1.80;;
54247;SDS011;40161;39.768;2.722;2023-11-19T00:33:10;3.25;;;1.70;;
54247;SDS011;40161;39.768;2.722;2023-11-19T00:35:35;3.35;;;1.80;;
54247;SDS011;40161;39.768;2.722;2023-11-19T00:38:01;3.05;;;1.60;;
54247;SDS011;40161;39.768;2.722;2023-11-19T00:40:28;2.50;;;1.40;;
54247;SDS011;40161;39.768;2.722;2023-11-19T00:42:53;3.17;;;1.48;;
54247;SDS011;40161;39.768;2.722;2023-11-19T00:45:19;2.53;;;1.58;;
54247;SDS011;40161;39.768;2.722;2023-11-19T00:47:44;4.03;;;1.90;;
54247;SDS011;40161;39.768;2.722;2023-11-19T00:50:10;4.03;;;1.80;;
54247;SDS011;40161;39.768;2.722;2023-11-19T00:52:36;3.35;;;1.85;;
54247;SDS011;40161;39.768;2.722;2023-11-19T00:55:03;4.82;;;2.40;;
54247;SDS011;40161;39.768;2.722;2023-11-19T00:57:30;3.03;;;1.80;;
54247;SDS011;40161;39.768;2.722;2023-11-19T00:59:57;2.80;;;1.70;;
54247;SDS011;40161;39.768;2.722;2023-11-19T01:02:26;4.35;;;2.03;;
54247;SDS011;40161;39.768;2.722;2023-11-19T01:04:51;2.30;;;1.52;;
54247;SDS011;40161;39.768;2.722;2023-11-19T01:07:17;3.20;;;1.70;;
54247;SDS011;40161;39.768;2.722;2023-11-19T01:09:43;3.22;;;1.70;;
54247;SDS011;40161;39.768;2.722;2023-11-19T01:12:08;4.38;;;1.98;;
54247;SDS011;40161;39.768;2.722;2023-11-19T01:14:35;3.10;;;1.50;;
54247;SDS011;40161;39.768;2.722;2023-11-19T01:17:01;3.35;;;1.58;;
54247;SDS011;40161;39.768;2.722;2023-11-19T01:19:27;2.53;;;1.25;;
54247;SDS011;40161;39.768;2.722;2023-11-19T01:21:54;2.55;;;1.30;;
54247;SDS011;40161;39.768;2.722;2023-11-19T01:24:20;3.25;;;1.35;;
54247;SDS011;40161;39.768;2.722;2023-11-19T01:26:45;2.83;;;1.40;;
54247;SDS011;40161;39.768;2.722;2023-11-19T01:29:12;3.42;;;1.80;;
54247;SDS011;40161;39.768;2.722;2023-11-19T01:31:41;3.05;;;1.60;;
54247;SDS011;40161;39.768;2.722;2023-11-19T01:34:07;2.83;;;1.40;;
54247;SDS011;40161;39.768;2.722;2023-11-19T01:36:33;2.70;;;1.27;;
54247;SDS011;40161;39.768;2.722;2023-11-19T01:38:59;2.25;;;1.20;;
54247;SDS011;40161;39.768;2.722;2023-11-19T01:41:24;2.10;;;1.20;;
54247;SDS011;40161;39.768;2.722;2023-11-19T01:43:50;2.33;;;1.30;;
54247;SDS011;40161;39.768;2.722;2023-11-19T01:46:16;2.67;;;1.40;;
54247;SDS011;40161;39.768;2.722;2023-11-19T01:48:44;2.47;;;1.20;;
54247;SDS011;40161;39.768;2.722;2023-11-19T01:51:12;2.35;;;1.30;;
54247;SDS011;40161;39.768;2.722;2023-11-19T01:53:41;2.67;;;1.40;;
54247;SDS011;40161;39.768;2.722;2023-11-19T01:56:08;4.25;;;1.73;;
54247;SDS011;40161;39.768;2.722;2023-11-19T01:58:36;2.30;;;1.33;;
54247;SDS011;40161;39.768;2.722;2023-11-19T02:01:02;3.40;;;1.50;;
54247;SDS011;40161;39.768;2.722;2023-11-19T02:03:30;5.03;;;1.90;;
54247;SDS011;40161;39.768;2.722;2023-11-19T02:05:58;7.45;;;3.08;;
54247;SDS011;40161;39.768;2.722;2023-11-19T02:08:24;5.85;;;3.08;;
54247;SDS011;40161;39.768;2.722;2023-11-19T02:10:51;7.50;;;2.83;;
54247;SDS011;40161;39.768;2.722;2023-11-19T02:13:17;9.50;;;4.43;;
54247;SDS011;40161;39.768;2.722;2023-11-19T02:15:43;6.53;;;2.80;;
54247;SDS011;40161;39.768;2.722;2023-11-19T02:20:47;5.40;;;2.58;;
54247;SDS011;40161;39.768;2.722;2023-11-19T02:23:17;4.18;;;2.58;;
54247;SDS011;40161;39.768;2.722;2023-11-19T02:28:39;3.97;;;2.20;;
54247;SDS011;40161;39.768;2.722;2023-11-19T02:31:05;3.80;;;2.22;;
54247;SDS011;40161;39.768;2.722;2023-11-19T02:33:34;6.47;;;2.35;;
54247;SDS011;40161;39.768;2.722;2023-11-19T02:36:01;3.80;;;2.00;;
54247;SDS011;40161;39.768;2.722;2023-11-19T02:38:28;4.15;;;1.90;;
54247;SDS011;40161;39.768;2.722;2023-11-19T02:40:54;4.45;;;2.30;;
54247;SDS011;40161;39.768;2.722;2023-11-19T02:43:20;4.15;;;2.30;;
54247;SDS011;40161;39.768;2.722;2023-11-19T02:45:45;7.97;;;3.72;;
54247;SDS011;40161;39.768;2.722;2023-11-19T02:48:11;7.10;;;3.50;;
54247;SDS011;40161;39.768;2.722;2023-11-19T02:50:36;7.72;;;4.47;;
54247;SDS011;40161;39.768;2.722;2023-11-19T02:53:02;6.88;;;3.60;;
54247;SDS011;40161;39.768;2.722;2023-11-19T02:55:27;6.20;;;3.35;;
54247;SDS011;40161;39.768;2.722;2023-11-19T02:57:55;4.68;;;2.55;;
54247;SDS011;40161;39.768;2.722;2023-11-19T03:00:24;4.72;;;2.45;;
54247;SDS011;40161;39.768;2.722;2023-11-19T03:02:56;5.28;;;2.25;;
54247;SDS011;40161;39.768;2.722;2023-11-19T03:05:25;3.95;;;1.88;;
54247;SDS011;40161;39.768;2.722;2023-11-19T03:07:54;3.90;;;2.10;;
54247;SDS011;40161;39.768;2.722;2023-11-19T03:10:20;3.55;;;1.80;;
54247;SDS011;40161;39.768;2.722;2023-11-19T03:12:45;3.95;;;1.90;;
54247;SDS011;40161;39.768;2.722;2023-11-19T03:15:11;4.32;;;2.15;;
54247;SDS011;40161;39.768;2.722;2023-11-19T03:17:40;3.40;;;1.85;;
54247;SDS011;40161;39.768;2.722;2023-11-19T03:20:08;2.95;;;2.15;;
54247;SDS011;40161;39.768;2.722;2023-11-19T03:22:39;3.67;;;1.73;;
54247;SDS011;40161;39.768;2.722;2023-11-19T03:25:06;3.92;;;1.90;;
54247;SDS011;40161;39.768;2.722;2023-11-19T03:27:33;3.78;;;1.27;;
54247;SDS011;40161;39.768;2.722;2023-11-19T03:30:01;3.00;;;1.30;;
54247;SDS011;40161;39.768;2.722;2023-11-19T03:32:29;3.03;;;1.20;;
54247;SDS011;40161;39.768;2.722;2023-11-19T03:34:56;2.33;;;1.30;;
54247;SDS011;40161;39.768;2.722;2023-11-19T03:37:21;2.17;;;0.88;;
54247;SDS011;40161;39.768;2.722;2023-11-19T03:39:47;4.03;;;1.27;;
54247;SDS011;40161;39.768;2.722;2023-11-19T03:42:12;2.10;;;1.10;;
54247;SDS011;40161;39.768;2.722;2023-11-19T03:44:38;2.22;;;1.20;;
54247;SDS011;40161;39.768;2.722;2023-11-19T03:47:04;1.95;;;0.98;;
54247;SDS011;40161;39.768;2.722;2023-11-19T03:49:29;2.17;;;1.13;;
54247;SDS011;40161;39.768;2.722;2023-11-19T03:51:55;2.10;;;1.08;;
54247;SDS011;40161;39.768;2.722;2023-11-19T03:54:20;2.17;;;1.30;;
54247;SDS011;40161;39.768;2.722;2023-11-19T03:56:48;2.47;;;1.00;;
54247;SDS011;40161;39.768;2.722;2023-11-19T03:59:13;3.17;;;1.52;;
54247;SDS011;40161;39.768;2.722;2023-11-19T04:01:40;2.70;;;1.40;;
54247;SDS011;40161;39.768;2.722;2023-11-19T04:04:06;2.08;;;1.00;;
54247;SDS011;40161;39.768;2.722;2023-11-19T04:06:31;3.15;;;1.50;;
54247;SDS011;40161;39.768;2.722;2023-11-19T04:08:57;1.95;;;0.93;;
54247;SDS011;40161;39.768;2.722;2023-11-19T04:11:22;2.67;;;1.00;;
54247;SDS011;40161;39.768;2.722;2023-11-19T04:13:48;1.88;;;0.90;;
54247;SDS011;40161;39.768;2.722;2023-11-19T04:16:14;1.55;;;0.90;;
54247;SDS011;40161;39.768;2.722;2023-11-19T04:18:40;2.00;;;1.20;;
54247;SDS011;40161;39.768;2.722;2023-11-19T04:21:06;3.60;;;1.13;;
54247;SDS011;40161;39.768;2.722;2023-11-19T04:23:32;2.42;;;1.30;;
54247;SDS011;40161;39.768;2.722;2023-11-19T04:25:58;4.30;;;1.30;;
54247;SDS011;40161;39.768;2.722;2023-11-19T04:28:27;2.50;;;1.20;;
54247;SDS011;40161;39.768;2.722;2023-11-19T04:30:52;2.63;;;1.20;;
54247;SDS011;40161;39.768;2.722;2023-11-19T04:33:18;2.40;;;1.13;;
54247;SDS011;40161;39.768;2.722;2023-11-19T04:35:44;2.78;;;1.23;;
54247;SDS011;40161;39.768;2.722;2023-11-19T04:38:09;3.05;;;1.15;;
54247;SDS011;40161;39.768;2.722;2023-11-19T04:40:35;1.67;;;0.98;;
54247;SDS011;40161;39.768;2.722;2023-11-19T04:43:01;2.60;;;1.00;;
54247;SDS011;40161;39.768;2.722;2023-11-19T04:45:26;2.22;;;1.17;;
54247;SDS011;40161;39.768;2.722;2023-11-19T04:47:52;1.40;;;1.00;;
54247;SDS011;40161;39.768;2.722;2023-11-19T04:50:17;2.25;;;1.20;;
54247;SDS011;40161;39.768;2.722;2023-11-19T04:52:43;2.88;;;1.23;;
54247;SDS011;40161;39.768;2.722;2023-11-19T04:55:12;2.50;;;1.10;;
54247;SDS011;40161;39.768;2.722;2023-11-19T04:57:39;1.48;;;1.00;;
54247;SDS011;40161;39.768;2.722;2023-11-19T05:00:05;3.42;;;1.13;;
54247;SDS011;40161;39.768;2.722;2023-11-19T05:02:32;1.50;;;1.10;;
54247;SDS011;40161;39.768;2.722;2023-11-19T05:04:59;2.53;;;1.20;;
54247;SDS011;40161;39.768;2.722;2023-11-19T05:07:24;2.95;;;1.08;;
54247;SDS011;40161;39.768;2.722;2023-11-19T05:09:50;2.58;;;1.25;;
54247;SDS011;40161;39.768;2.722;2023-11-19T05:12:16;2.55;;;1.40;;
54247;SDS011;40161;39.768;2.722;2023-11-19T05:14:41;1.92;;;1.05;;
54247;SDS011;40161;39.768;2.722;2023-11-19T05:19:39;1.92;;;1.02;;
54247;SDS011;40161;39.768;2.722;2023-11-19T05:22:05;2.42;;;1.10;;
54247;SDS011;40161;39.768;2.722;2023-11-19T05:24:31;1.92;;;1.00;;
54247;SDS011;40161;39.768;2.722;2023-11-19T05:26:57;4.80;;;1.42;;
54247;SDS011;40161;39.768;2.722;2023-11-19T05:29:23;2.03;;;1.23;;
54247;SDS011;40161;39.768;2.722;2023-11-19T05:31:49;3.17;;;1.40;;
54247;SDS011;40161;39.768;2.722;2023-11-19T05:34:14;3.08;;;1.60;;
54247;SDS011;40161;39.768;2.722;2023-11-19T05:36:40;2.58;;;1.13;;
54247;SDS011;40161;39.768;2.722;2023-11-19T05:39:05;2.80;;;1.10;;
54247;SDS011;40161;39.768;2.722;2023-11-19T05:41:31;3.03;;;1.40;;
54247;SDS011;40161;39.768;2.722;2023-11-19T05:43:57;2.15;;;1.20;;
54247;SDS011;40161;39.768;2.722;2023-11-19T05:46:22;2.22;;;1.10;;
54247;SDS011;40161;39.768;2.722;2023-11-19T05:48:48;1.88;;;1.00;;
54247;SDS011;40161;39.768;2.722;2023-11-19T05:51:13;2.78;;;1.08;;
54247;SDS011;40161;39.768;2.722;2023-11-19T05:53:40;2.40;;;1.17;;
54247;SDS011;40161;39.768;2.722;2023-11-19T05:56:06;2.08;;;1.08;;
54247;SDS011;40161;39.768;2.722;2023-11-19T05:58:34;2.65;;;1.00;;
54247;SDS011;40161;39.768;2.722;2023-11-19T06:01:01;2.40;;;1.15;;
54247;SDS011;40161;39.768;2.722;2023-11-19T06:03:27;2.03;;;1.10;;
54247;SDS011;40161;39.768;2.722;2023-11-19T06:05:53;2.33;;;1.10;;
54247;SDS011;40161;39.768;2.722;2023-11-19T06:08:19;3.15;;;1.30;;
54247;SDS011;40161;39.768;2.722;2023-11-19T06:10:46;3.00;;;1.27;;
54247;SDS011;40161;39.768;2.722;2023-11-19T06:13:12;1.73;;;1.10;;
54247;SDS011;40161;39.768;2.722;2023-11-19T06:15:40;2.70;;;1.20;;
54247;SDS011;40161;39.768;2.722;2023-11-19T06:18:09;2.25;;;1.20;;
54247;SDS011;40161;39.768;2.722;2023-11-19T06:20:36;2.30;;;1.30;;
54247;SDS011;40161;39.768;2.722;2023-11-19T06:23:02;2.50;;;1.30;;
54247;SDS011;40161;39.768;2.722;2023-11-19T06:25:27;2.60;;;1.30;;
54247;SDS011;40161;39.768;2.722;2023-11-19T06:27:53;2.53;;;1.10;;
54247;SDS011;40161;39.768;2.722;2023-11-19T06:30:19;2.88;;;1.27;;
54247;SDS011;40161;39.768;2.722;2023-11-19T06:32:45;4.28;;;1.20;;
54247;SDS011;40161;39.768;2.722;2023-11-19T06:35:12;2.92;;;1.42;;
54247;SDS011;40161;39.768;2.722;2023-11-19T06:37:39;4.38;;;2.15;;
54247;SDS011;40161;39.768;2.722;2023-11-19T06:40:05;3.75;;;1.90;;
54247;SDS011;40161;39.768;2.722;2023-11-19T06:42:31;3.47;;;1.40;;
54247;SDS011;40161;39.768;2.722;2023-11-19T06:44:57;2.78;;;1.25;;
54247;SDS011;40161;39.768;2.722;2023-11-19T06:47:26;1.95;;;1.23;;
54247;SDS011;40161;39.768;2.722;2023-11-19T06:49:53;2.35;;;1.20;;
54247;SDS011;40161;39.768;2.722;2023-11-19T06:52:19;5.45;;;1.30;;
54247;SDS011;40161;39.768;2.722;2023-11-19T06:54:44;2.10;;;1.10;;
54247;SDS011;40161;39.768;2.722;2023-11-19T06:57:13;1.65;;;1.08;;
54247;SDS011;40161;39.768;2.722;2023-11-19T06:59:38;2.47;;;1.20;;
54247;SDS011;40161;39.768;2.722;2023-11-19T07:02:04;1.98;;;1.20;;
54247;SDS011;40161;39.768;2.722;2023-11-19T07:04:31;4.45;;;1.40;;
54247;SDS011;40161;39.768;2.722;2023-11-19T07:06:56;4.25;;;2.50;;
54247;SDS011;40161;39.768;2.722;2023-11-19T07:09:22;4.65;;;3.17;;
54247;SDS011;40161;39.768;2.722;2023-11-19T07:11:48;5.38;;;3.20;;
54247;SDS011;40161;39.768;2.722;2023-11-19T07:14:15;6.18;;;3.17;;
54247;SDS011;40161;39.768;2.722;2023-11-19T07:16:41;3.40;;;1.60;;
54247;SDS011;40161;39.768;2.722;2023-11-19T07:19:08;4.55;;;1.60;;
54247;SDS011;40161;39.768;2.722;2023-11-19T07:21:34;3.70;;;1.58;;
54247;SDS011;40161;39.768;2.722;2023-11-19T07:24:00;4.18;;;1.50;;
54247;SDS011;40161;39.768;2.722;2023-11-19T07:26:27;5.47;;;1.50;;
54247;SDS011;40161;39.768;2.722;2023-11-19T07:28:53;2.85;;;1.42;;
54247;SDS011;40161;39.768;2.722;2023-11-19T07:31:18;4.60;;;1.33;;
54247;SDS011;40161;39.768;2.722;2023-11-19T07:33:47;3.30;;;1.70;;
54247;SDS011;40161;39.768;2.722;2023-11-19T07:36:13;4.80;;;1.70;;
54247;SDS011;40161;39.768;2.722;2023-11-19T07:38:39;4.88;;;2.13;;
54247;SDS011;40161;39.768;2.722;2023-11-19T07:41:07;3.25;;;1.70;;
54247;SDS011;40161;39.768;2.722;2023-11-19T07:43:37;3.95;;;2.00;;
54247;SDS011;40161;39.768;2.722;2023-11-19T07:46:04;5.50;;;1.90;;
54247;SDS011;40161;39.768;2.722;2023-11-19T07:48:32;4.38;;;1.60;;
54247;SDS011;40161;39.768;2.722;2023-11-19T07:51:00;5.50;;;3.00;;
54247;SDS011;40161;39.768;2.722;2023-11-19T07:53:25;3.85;;;2.00;;
54247;SDS011;40161;39.768;2.722;2023-11-19T07:55:51;5.28;;;2.20;;
54247;SDS011;40161;39.768;2.722;2023-11-19T07:58:16;4.90;;;2.42;;
54247;SDS011;40161;39.768;2.722;2023-11-19T08:00:43;5.22;;;2.08;;
54247;SDS011;40161;39.768;2.722;2023-11-19T08:03:08;3.70;;;1.60;;
54247;SDS011;40161;39.768;2.722;2023-11-19T08:05:34;6.90;;;1.95;;
54247;SDS011;40161;39.768;2.722;2023-11-19T08:07:59;4.93;;;1.90;;
54247;SDS011;40161;39.768;2.722;2023-11-19T08:10:25;5.18;;;2.33;;
54247;SDS011;40161;39.768;2.722;2023-11-19T08:12:51;5.05;;;2.08;;
54247;SDS011;40161;39.768;2.722;2023-11-19T08:15:17;5.90;;;2.42;;
54247;SDS011;40161;39.768;2.722;2023-11-19T08:17:43;5.03;;;2.30;;
54247;SDS011;40161;39.768;2.722;2023-11-19T08:20:09;6.50;;;3.38;;
54247;SDS011;40161;39.768;2.722;2023-11-19T08:22:38;3.65;;;2.50;;
54247;SDS011;40161;39.768;2.722;2023-11-19T08:25:04;6.10;;;2.35;;
54247;SDS011;40161;39.768;2.722;2023-11-19T08:27:30;3.83;;;1.90;;
54247;SDS011;40161;39.768;2.722;2023-11-19T08:29:56;6.07;;;1.83;;
54247;SDS011;40161;39.768;2.722;2023-11-19T08:32:25;2.55;;;1.52;;
54247;SDS011;40161;39.768;2.722;2023-11-19T08:34:51;3.08;;;1.45;;
54247;SDS011;40161;39.768;2.722;2023-11-19T08:37:17;4.45;;;1.70;;
54247;SDS011;40161;39.768;2.722;2023-11-19T08:39:48;5.07;;;1.63;;
54247;SDS011;40161;39.768;2.722;2023-11-19T08:42:15;4.13;;;2.15;;
54247;SDS011;40161;39.768;2.722;2023-11-19T08:44:42;11.30;;;6.15;;
54247;SDS011;40161;39.768;2.722;2023-11-19T08:47:12;7.38;;;4.10;;
54247;SDS011;40161;39.768;2.722;2023-11-19T08:49:38;6.20;;;2.88;;
54247;SDS011;40161;39.768;2.722;2023-11-19T08:52:04;5.45;;;3.03;;
54247;SDS011;40161;39.768;2.722;2023-11-19T08:54:32;4.28;;;2.40;;
54247;SDS011;40161;39.768;2.722;2023-11-19T08:56:58;5.82;;;2.80;;
54247;SDS011;40161;39.768;2.722;2023-11-19T08:59:24;4.07;;;1.75;;
54247;SDS011;40161;39.768;2.722;2023-11-19T09:01:50;5.10;;;1.90;;
54247;SDS011;40161;39.768;2.722;2023-11-19T09:04:15;3.95;;;1.88;;
54247;SDS011;40161;39.768;2.722;2023-11-19T09:06:41;5.20;;;1.90;;
54247;SDS011;40161;39.768;2.722;2023-11-19T09:09:08;8.52;;;3.22;;
54247;SDS011;40161;39.768;2.722;2023-11-19T09:11:34;9.18;;;4.30;;
54247;SDS011;40161;39.768;2.722;2023-11-19T09:14:00;11.82;;;7.10;;
54247;SDS011;40161;39.768;2.722;2023-11-19T09:16:25;19.98;;;15.07;;
54247;SDS011;40161;39.768;2.722;2023-11-19T09:18:51;19.52;;;14.73;;
54247;SDS011;40161;39.768;2.722;2023-11-19T09:21:17;14.52;;;11.38;;
54247;SDS011;40161;39.768;2.722;2023-11-19T09:23:42;13.38;;;10.65;;
54247;SDS011;40161;39.768;2.722;2023-11-19T09:26:08;13.07;;;9.52;;
54247;SDS011;40161;39.768;2.722;2023-11-19T09:28:37;10.43;;;6.97;;
54247;SDS011;40161;39.768;2.722;2023-11-19T09:31:02;13.95;;;8.07;;
54247;SDS011;40161;39.768;2.722;2023-11-19T09:33:31;11.25;;;6.65;;
54247;SDS011;40161;39.768;2.722;2023-11-19T09:35:56;10.02;;;6.38;;
54247;SDS011;40161;39.768;2.722;2023-11-19T09:38:22;12.75;;;8.15;;
54247;SDS011;40161;39.768;2.722;2023-11-19T09:40:48;13.50;;;9.32;;
54247;SDS011;40161;39.768;2.722;2023-11-19T09:43:17;18.30;;;12.93;;
54247;SDS011;40161;39.768;2.722;2023-11-19T09:45:52;24.70;;;16.55;;
54247;SDS011;40161;39.768;2.722;2023-11-19T09:48:18;23.58;;;14.70;;
54247;SDS011;40161;39.768;2.722;2023-11-19T09:50:48;16.02;;;11.20;;
54247;SDS011;40161;39.768;2.722;2023-11-19T09:53:14;13.10;;;8.25;;
54247;SDS011;40161;39.768;2.722;2023-11-19T09:55:40;10.13;;;7.40;;
54247;SDS011;40161;39.768;2.722;2023-11-19T09:58:06;7.40;;;4.40;;
54247;SDS011;40161;39.768;2.722;2023-11-19T10:00:33;6.07;;;3.20;;
54247;SDS011;40161;39.768;2.722;2023-11-19T10:02:59;6.35;;;3.28;;
54247;SDS011;40161;39.768;2.722;2023-11-19T10:05:25;5.07;;;2.67;;
54247;SDS011;40161;39.768;2.722;2023-11-19T10:07:51;5.53;;;2.83;;
54247;SDS011;40161;39.768;2.722;2023-11-19T10:10:18;5.38;;;3.40;;
54247;SDS011;40161;39.768;2.722;2023-11-19T10:12:47;6.65;;;3.83;;
54247;SDS011;40161;39.768;2.722;2023-11-19T10:15:17;5.03;;;2.95;;
54247;SDS011;40161;39.768;2.722;2023-11-19T10:17:47;4.50;;;1.92;;
54247;SDS011;40161;39.768;2.722;2023-11-19T10:20:13;4.90;;;2.38;;
54247;SDS011;40161;39.768;2.722;2023-11-19T10:22:38;8.70;;;6.85;;
54247;SDS011;40161;39.768;2.722;2023-11-19T10:25:26;6.45;;;4.10;;
54247;SDS011;40161;39.768;2.722;2023-11-19T10:27:55;4.50;;;2.90;;
54247;SDS011;40161;39.768;2.722;2023-11-19T10:30:22;3.80;;;2.30;;
54247;SDS011;40161;39.768;2.722;2023-11-19T10:35:53;3.20;;;1.80;;
54247;SDS011;40161;39.768;2.722;2023-11-19T10:38:22;3.75;;;1.80;;
54247;SDS011;40161;39.768;2.722;2023-11-19T10:40:48;2.65;;;1.30;;
54247;SDS011;40161;39.768;2.722;2023-11-19T10:43:16;3.42;;;1.60;;
54247;SDS011;40161;39.768;2.722;2023-11-19T10:45:44;3.88;;;2.15;;
54247;SDS011;40161;39.768;2.722;2023-11-19T10:48:10;3.80;;;1.80;;
54247;SDS011;40161;39.768;2.722;2023-11-19T10:50:38;3.97;;;1.80;;
54247;SDS011;40161;39.768;2.722;2023-11-19T10:53:05;3.90;;;1.85;;
54247;SDS011;40161;39.768;2.722;2023-11-19T10:55:34;3.60;;;2.03;;
54247;SDS011;40161;39.768;2.722;2023-11-19T10:58:01;4.28;;;2.45;;
54247;SDS011;40161;39.768;2.722;2023-11-19T11:03:11;5.55;;;2.13;;
54247;SDS011;40161;39.768;2.722;2023-11-19T11:05:42;6.13;;;2.47;;
54247;SDS011;40161;39.768;2.722;2023-11-19T11:08:08;5.30;;;2.35;;
54247;SDS011;40161;39.768;2.722;2023-11-19T11:10:35;5.07;;;2.47;;
54247;SDS011;40161;39.768;2.722;2023-11-19T11:13:07;5.00;;;2.67;;
54247;SDS011;40161;39.768;2.722;2023-11-19T11:15:33;6.53;;;2.88;;
54247;SDS011;40161;39.768;2.722;2023-11-19T11:18:01;5.93;;;3.25;;
54247;SDS011;40161;39.768;2.722;2023-11-19T11:20:31;5.93;;;3.00;;
54247;SDS011;40161;39.768;2.722;2023-11-19T11:31:08;5.88;;;2.92;;
54247;SDS011;40161;39.768;2.722;2023-11-19T11:34:04;6.65;;;3.03;;
54247;SDS011;40161;39.768;2.722;2023-11-19T11:36:53;6.75;;;3.45;;
54247;SDS011;40161;39.768;2.722;2023-11-19T11:39:21;6.70;;;3.90;;
54247;SDS011;40161;39.768;2.722;2023-11-19T11:41:58;6.15;;;3.65;;
54247;SDS011;40161;39.768;2.722;2023-11-19T11:44:58;5.45;;;3.13;;
54247;SDS011;40161;39.768;2.722;2023-11-19T11:48:30;6.78;;;3.10;;
54247;SDS011;40161;39.768;2.722;2023-11-19T11:50:24;6.70;;;3.00;;
54247;SDS011;40161;39.768;2.722;2023-11-19T11:55:23;6.47;;;3.30;;
54247;SDS011;40161;39.768;2.722;2023-11-19T11:57:49;7.32;;;3.08;;
54247;SDS011;40161;39.768;2.722;2023-11-19T12:00:22;7.20;;;3.38;;
54247;SDS011;40161;39.768;2.722;2023-11-19T12:02:51;7.85;;;3.95;;
54247;SDS011;40161;39.768;2.722;2023-11-19T12:05:17;7.70;;;3.80;;
54247;SDS011;40161;39.768;2.722;2023-11-19T12:07:49;5.63;;;3.30;;
54247;SDS011;40161;39.768;2.722;2023-11-19T12:12:56;5.05;;;2.45;;
54247;SDS011;40161;39.768;2.722;2023-11-19T12:15:23;4.93;;;1.83;;
54247;SDS011;40161;39.768;2.722;2023-11-19T12:17:50;3.97;;;1.80;;
54247;SDS011;40161;39.768;2.722;2023-11-19T12:20:17;3.80;;;1.50;;
54247;SDS011;40161;39.768;2.722;2023-11-19T12:22:44;3.38;;;1.55;;
54247;SDS011;40161;39.768;2.722;2023-11-19T12:25:11;3.70;;;1.20;;
54247;SDS011;40161;39.768;2.722;2023-11-19T12:27:41;2.90;;;0.85;;
54247;SDS011;40161;39.768;2.722;2023-11-19T12:30:09;2.33;;;0.80;;
54247;SDS011;40161;39.768;2.722;2023-11-19T12:37:42;2.28;;;1.02;;
54247;SDS011;40161;39.768;2.722;2023-11-19T12:40:15;2.78;;;1.10;;
54247;SDS011;40161;39.768;2.722;2023-11-19T12:42:43;3.17;;;1.17;;
54247;SDS011;40161;39.768;2.722;2023-11-19T12:45:12;2.47;;;0.90;;
54247;SDS011;40161;39.768;2.722;2023-11-19T12:47:42;3.13;;;1.20;;
54247;SDS011;40161;39.768;2.722;2023-11-19T12:50:16;3.25;;;0.80;;
54247;SDS011;40161;39.768;2.722;2023-11-19T12:52:57;4.35;;;0.95;;
54247;SDS011;40161;39.768;2.722;2023-11-19T12:55:24;3.25;;;1.30;;
54247;SDS011;40161;39.768;2.722;2023-11-19T12:57:53;3.65;;;1.20;;
54247;SDS011;40161;39.768;2.722;2023-11-19T13:00:20;4.50;;;1.35;;
54247;SDS011;40161;39.768;2.722;2023-11-19T13:02:48;3.28;;;1.02;;
54247;SDS011;40161;39.768;2.722;2023-11-19T13:05:22;4.13;;;1.90;;
54247;SDS011;40161;39.768;2.722;2023-11-19T13:08:04;3.92;;;1.52;;
54247;SDS011;40161;39.768;2.722;2023-11-19T13:13:16;3.70;;;1.35;;
54247;SDS011;40161;39.768;2.722;2023-11-19T13:15:42;5.95;;;1.88;;
54247;SDS011;40161;39.768;2.722;2023-11-19T13:18:10;4.18;;;1.40;;
54247;SDS011;40161;39.768;2.722;2023-11-19T13:20:36;6.22;;;1.38;;
54247;SDS011;40161;39.768;2.722;2023-11-19T13:23:02;3.83;;;1.98;;
54247;SDS011;40161;39.768;2.722;2023-11-19T13:25:29;5.95;;;1.90;;
54247;SDS011;40161;39.768;2.722;2023-11-19T13:27:56;4.13;;;1.60;;
54247;SDS011;40161;39.768;2.722;2023-11-19T13:30:22;4.22;;;1.60;;
54247;SDS011;40161;39.768;2.722;2023-11-19T13:32:48;5.20;;;1.50;;
54247;SDS011;40161;39.768;2.722;2023-11-19T13:35:15;3.42;;;1.40;;
54247;SDS011;40161;39.768;2.722;2023-11-19T13:37:45;5.35;;;1.50;;
54247;SDS011;40161;39.768;2.722;2023-11-19T13:40:11;4.93;;;1.67;;
54247;SDS011;40161;39.768;2.722;2023-11-19T13:42:43;5.85;;;1.63;;
54247;SDS011;40161;39.768;2.722;2023-11-19T13:45:13;2.92;;;1.15;;
54247;SDS011;40161;39.768;2.722;2023-11-19T13:47:43;2.40;;;1.00;;
54247;SDS011;40161;39.768;2.722;2023-11-19T13:50:13;6.00;;;1.40;;
54247;SDS011;40161;39.768;2.722;2023-11-19T13:52:42;3.40;;;1.20;;
54247;SDS011;40161;39.768;2.722;2023-11-19T13:55:10;5.18;;;1.30;;
54247;SDS011;40161;39.768;2.722;2023-11-19T13:57:37;3.30;;;1.20;;
54247;SDS011;40161;39.768;2.722;2023-11-19T14:00:03;5.03;;;1.50;;
54247;SDS011;40161;39.768;2.722;2023-11-19T14:02:41;3.63;;;1.08;;
54247;SDS011;40161;39.768;2.722;2023-11-19T14:05:07;4.63;;;1.70;;
54247;SDS011;40161;39.768;2.722;2023-11-19T14:07:33;4.85;;;2.05;;
54247;SDS011;40161;39.768;2.722;2023-11-19T14:09:59;4.28;;;1.58;;
54247;SDS011;40161;39.768;2.722;2023-11-19T14:12:25;5.97;;;1.40;;
54247;SDS011;40161;39.768;2.722;2023-11-19T14:14:50;3.97;;;1.35;;
54247;SDS011;40161;39.768;2.722;2023-11-19T14:17:16;3.72;;;1.33;;
54247;SDS011;40161;39.768;2.722;2023-11-19T14:19:42;4.60;;;2.10;;
54247;SDS011;40161;39.768;2.722;2023-11-19T14:22:09;4.55;;;1.52;;
54247;SDS011;40161;39.768;2.722;2023-11-19T14:24:34;7.45;;;2.75;;
54247;SDS011;40161;39.768;2.722;2023-11-19T14:27:00;6.13;;;2.10;;
54247;SDS011;40161;39.768;2.722;2023-11-19T14:29:26;6.03;;;2.70;;
54247;SDS011;40161;39.768;2.722;2023-11-19T14:31:54;4.15;;;1.63;;
54247;SDS011;40161;39.768;2.722;2023-11-19T14:34:23;3.15;;;1.10;;
54247;SDS011;40161;39.768;2.722;2023-11-19T14:36:49;4.95;;;1.40;;
54247;SDS011;40161;39.768;2.722;2023-11-19T14:39:15;4.25;;;1.45;;
54247;SDS011;40161;39.768;2.722;2023-11-19T14:41:42;3.92;;;1.23;;
54247;SDS011;40161;39.768;2.722;2023-11-19T14:44:09;3.45;;;1.30;;
54247;SDS011;40161;39.768;2.722;2023-11-19T14:46:35;5.75;;;1.98;;
54247;SDS011;40161;39.768;2.722;2023-11-19T14:49:00;6.97;;;3.63;;
54247;SDS011;40161;39.768;2.722;2023-11-19T14:51:26;4.53;;;1.70;;
54247;SDS011;40161;39.768;2.722;2023-11-19T14:53:55;3.78;;;1.40;;
54247;SDS011;40161;39.768;2.722;2023-11-19T14:56:20;4.70;;;1.30;;
54247;SDS011;40161;39.768;2.722;2023-11-19T14:58:46;3.40;;;1.40;;
54247;SDS011;40161;39.768;2.722;2023-11-19T15:01:12;3.78;;;1.40;;
54247;SDS011;40161;39.768;2.722;2023-11-19T15:03:38;3.22;;;1.20;;
54247;SDS011;40161;39.768;2.722;2023-11-19T15:06:04;4.25;;;1.60;;
54247;SDS011;40161;39.768;2.722;2023-11-19T15:08:31;2.45;;;1.10;;
54247;SDS011;40161;39.768;2.722;2023-11-19T15:10:58;5.60;;;1.67;;
54247;SDS011;40161;39.768;2.722;2023-11-19T15:13:23;6.07;;;1.60;;
54247;SDS011;40161;39.768;2.722;2023-11-19T15:15:49;5.53;;;1.48;;
54247;SDS011;40161;39.768;2.722;2023-11-19T15:18:15;4.75;;;1.50;;
54247;SDS011;40161;39.768;2.722;2023-11-19T15:20:42;5.60;;;1.92;;